Time;durP1;ratioP1;P1;durP2;ratioP2;P2;SDS_P1;SDS_P2;PMS_P1;PMS_P2;Temp;Humidity;BMP_temperature;BMP_pressure;BME280_temperature;BME280_humidity;BME280_pressure;Samples;Min_cycle;Max_cycle;Signal;HPM_P1;HPM_P2
2021/12/16 00:08:59;;;;;;;7.83;5.27;;;;;;;4.60;100.00;100179.00;4990016;28;20069;-60
2021/12/16 00:28:58;;;;;;;9.23;5.90;;;;;;;4.52;100.00;100204.16;4989224;28;20084;-60
2021/12/16 00:33:44;;;;;;;11.83;5.90;;;;;;;4.60;100.00;100199.31;4991097;28;20049;-61
2021/12/16 00:36:11;;;;;;;10.40;6.23;;;;;;;4.62;100.00;100192.63;4992313;28;20104;-60
2021/12/16 00:38:39;;;;;;;10.60;6.80;;;;;;;4.60;100.00;100192.56;4989605;28;20125;-60
2021/12/16 00:41:05;;;;;;;10.50;5.83;;;;;;;4.61;100.00;100193.41;4993109;28;20080;-60
2021/12/16 00:43:41;;;;;;;9.87;6.10;;;;;;;4.61;100.00;100198.50;4995237;28;20085;-60
2021/12/16 00:54:09;;;;;;;8.10;5.47;;;;;;;4.64;100.00;100179.94;4993450;28;20037;-60
2021/12/16 00:56:36;;;;;;;8.23;5.43;;;;;;;4.65;100.00;100194.38;4991263;28;20436;-61
2021/12/16 00:59:04;;;;;;;9.20;5.83;;;;;;;4.68;100.00;100192.78;4987521;28;20107;-60
2021/12/16 01:01:42;;;;;;;8.80;5.40;;;;;;;4.65;100.00;100192.69;4989856;28;20034;-61
2021/12/16 01:34:10;;;;;;;7.00;4.60;;;;;;;5.09;100.00;100182.94;4995681;28;20093;-60
2021/12/16 01:47:44;;;;;;;5.57;3.70;;;;;;;5.23;100.00;100172.31;4994722;28;20073;-60
2021/12/16 01:50:36;;;;;;;5.97;4.30;;;;;;;5.22;100.00;100168.03;4993403;28;20106;-59
2021/12/16 01:53:17;;;;;;;6.53;4.30;;;;;;;5.22;100.00;100165.50;4992733;28;20065;-59
2021/12/16 01:55:59;;;;;;;6.25;3.88;;;;;;;5.15;100.00;100163.63;4991739;28;20025;-60
2021/12/16 01:58:29;;;;;;;7.07;4.70;;;;;;;5.17;100.00;100163.69;4994510;28;20448;-59
2021/12/16 02:01:11;;;;;;;5.73;4.00;;;;;;;5.28;100.00;100147.88;4994682;28;20496;-61
2021/12/16 02:03:45;;;;;;;6.73;4.27;;;;;;;5.15;100.00;100143.28;4993787;28;20026;-61
2021/12/16 02:08:47;;;;;;;6.35;4.18;;;;;;;5.09;100.00;100144.81;4997746;28;20132;-60
2021/12/16 02:11:29;;;;;;;4.27;3.20;;;;;;;5.16;100.00;100141.63;4994506;28;20042;-59
2021/12/16 02:35:47;;;;;;;7.47;4.50;;;;;;;5.06;100.00;100127.78;4991070;28;20042;-61
2021/12/16 02:38:18;;;;;;;6.47;4.18;;;;;;;5.20;100.00;100125.63;4999426;28;20500;-60
2021/12/16 02:40:46;;;;;;;7.73;4.83;;;;;;;5.21;100.00;100137.53;4994472;28;20074;-61
2021/12/16 02:51:06;;;;;;;9.00;4.93;;;;;;;5.33;100.00;100131.06;4989900;28;20057;-60
2021/12/16 02:53:34;;;;;;;6.77;4.77;;;;;;;5.37;100.00;100124.38;4990529;28;20038;-60
2021/12/16 02:56:00;;;;;;;9.20;4.40;;;;;;;5.44;100.00;100123.69;4991245;28;20530;-59
2021/12/16 02:58:26;;;;;;;7.73;4.43;;;;;;;5.46;100.00;100124.63;4991556;28;20078;-59
2021/12/16 03:01:08;;;;;;;6.13;4.47;;;;;;;5.50;100.00;100122.19;4989741;28;20113;-60
2021/12/16 03:03:37;;;;;;;7.50;5.00;;;;;;;5.42;100.00;100128.78;4992647;28;20109;-61
2021/12/16 03:06:03;;;;;;;7.63;5.17;;;;;;;5.39;100.00;100118.50;4998833;28;20282;-61
2021/12/16 03:08:30;;;;;;;7.00;4.33;;;;;;;5.38;100.00;100121.88;4995879;28;20038;-61
2021/12/16 03:13:35;;;;;;;7.33;5.07;;;;;;;5.42;100.00;100128.78;4990524;28;20562;-60
2021/12/16 03:18:48;;;;;;;8.10;5.17;;;;;;;5.50;100.00;100126.41;4990005;28;20040;-60
2021/12/16 03:21:22;;;;;;;9.17;5.63;;;;;;;5.36;100.00;100120.09;4990914;28;20259;-59
2021/12/16 03:36:47;;;;;;;8.40;6.90;;;;;;;5.33;100.00;100135.28;4991273;28;20038;-60
2021/12/16 03:39:15;;;;;;;6.73;4.70;;;;;;;5.14;100.00;100126.31;4990629;28;20030;-60
2021/12/16 03:41:41;;;;;;;8.83;5.37;;;;;;;5.20;100.00;100126.47;4989669;28;20451;-60
2021/12/16 03:44:14;;;;;;;6.80;5.03;;;;;;;5.22;100.00;100137.53;4991309;28;20073;-59
2021/12/16 03:46:47;;;;;;;8.27;5.33;;;;;;;5.25;100.00;100136.78;4992508;28;20342;-59
2021/12/16 03:49:20;;;;;;;8.70;5.67;;;;;;;5.21;100.00;100133.31;4991796;28;20046;-60
2021/12/16 03:52:06;;;;;;;8.07;5.27;;;;;;;5.26;100.00;100131.72;4988582;28;20041;-62
2021/12/16 03:54:38;;;;;;;8.50;5.37;;;;;;;5.15;100.00;100122.09;5001261;28;20472;-60
2021/12/16 03:57:08;;;;;;;8.30;4.97;;;;;;;5.10;100.00;100132.13;4987456;28;20044;-60
2021/12/16 03:59:37;;;;;;;6.80;5.87;;;;;;;5.12;100.00;100127.09;4992726;28;20101;-60
2021/12/16 04:02:16;;;;;;;7.33;5.10;;;;;;;5.16;100.00;100119.59;4993983;28;20129;-60
2021/12/16 04:04:42;;;;;;;7.20;5.00;;;;;;;5.10;100.00;100134.69;4983267;28;20123;-60
2021/12/16 04:07:09;;;;;;;7.80;5.30;;;;;;;5.16;100.00;100134.00;4986429;28;20022;-59
2021/12/16 04:09:35;;;;;;;7.43;5.40;;;;;;;5.16;100.00;100134.00;4990372;28;20040;-60
2021/12/16 04:12:09;;;;;;;8.37;5.13;;;;;;;5.14;100.00;100140.69;4995490;28;20068;-59
2021/12/16 04:14:37;;;;;;;7.87;5.17;;;;;;;5.13;100.00;100139.88;4987838;28;20104;-59
2021/12/16 04:17:04;;;;;;;9.57;5.57;;;;;;;5.12;100.00;100127.09;4986811;28;20035;-60
2021/12/16 04:19:33;;;;;;;7.33;4.97;;;;;;;5.14;100.00;100128.84;4990681;28;20096;-60
2021/12/16 04:22:04;;;;;;;9.80;6.30;;;;;;;5.13;100.00;100128.84;4992440;28;20515;-60
2021/12/16 04:24:31;;;;;;;7.57;6.10;;;;;;;5.09;100.00;100127.91;4989052;28;20049;-59
2021/12/16 04:26:58;;;;;;;7.80;5.70;;;;;;;5.06;100.00;100132.88;4988985;28;20393;-60
2021/12/16 04:29:24;;;;;;;5.47;4.73;;;;;;;5.11;100.00;100112.66;4993517;28;20143;-60
2021/12/16 04:31:53;;;;;;;8.33;5.70;;;;;;;5.19;100.00;100118.81;4989746;28;20030;-58
2021/12/16 04:34:19;;;;;;;7.83;5.70;;;;;;;5.18;100.00;100112.84;4986985;28;20038;-61
2021/12/16 04:36:44;;;;;;;7.53;5.47;;;;;;;5.11;100.00;100115.22;4979077;28;20038;-60
2021/12/16 04:39:15;;;;;;;9.60;6.23;;;;;;;5.18;100.00;100130.66;4992436;28;20413;-60
2021/12/16 04:41:42;;;;;;;7.80;5.83;;;;;;;5.20;100.00;100129.03;4992326;28;20523;-61
2021/12/16 04:44:11;;;;;;;9.67;6.73;;;;;;;5.20;100.00;100130.72;4989275;28;20034;-60
2021/12/16 04:46:37;;;;;;;12.20;6.80;;;;;;;5.15;100.00;100133.13;4986431;28;20026;-60
2021/12/16 04:49:04;;;;;;;8.00;6.20;;;;;;;5.06;100.00;100131.19;4993209;28;20493;-59
2021/12/16 04:51:38;;;;;;;11.30;7.57;;;;;;;5.12;100.00;100127.97;4997257;28;20030;-60
2021/12/16 04:54:06;;;;;;;8.70;6.47;;;;;;;5.01;100.00;100129.34;4987733;28;20384;-60
2021/12/16 04:56:32;;;;;;;9.57;7.00;;;;;;;5.09;100.00;100138.06;4995288;28;20045;-59
2021/12/16 04:58:58;;;;;;;8.23;6.80;;;;;;;5.09;100.00;100147.38;4997329;28;20061;-59
2021/12/16 05:01:24;;;;;;;9.37;7.30;;;;;;;4.96;100.00;100141.09;4993153;28;20487;-60
2021/12/16 05:03:51;;;;;;;11.60;7.10;;;;;;;5.03;100.00;100126.03;4993701;28;20030;-60
2021/12/16 05:06:17;;;;;;;9.13;6.40;;;;;;;4.96;100.00;100139.41;4978145;28;20034;-60
2021/12/16 05:08:43;;;;;;;11.70;8.33;;;;;;;4.96;100.00;100149.56;4999807;28;20038;-60
2021/12/16 05:11:13;;;;;;;9.17;6.27;;;;;;;5.00;100.00;100142.88;4995106;28;20037;-58
2021/12/16 05:13:39;;;;;;;9.57;6.80;;;;;;;4.92;100.00;100150.28;4994513;28;20045;-58
2021/12/16 05:16:06;;;;;;;8.20;7.00;;;;;;;4.94;100.00;100142.72;4991151;28;20053;-61
2021/12/16 05:18:35;;;;;;;8.53;6.13;;;;;;;4.95;100.00;100159.69;4993696;28;20095;-59
2021/12/16 05:24:28;;;;;;;8.90;6.33;;;;;;;4.96;100.00;100151.25;4922488;29;20028;-59
2021/12/16 05:26:56;;;;;;;9.80;6.40;;;;;;;4.90;100.00;100163.78;4926173;29;20126;-60
2021/12/16 05:29:23;;;;;;;9.67;7.30;;;;;;;4.84;100.00;100149.22;4928065;29;20051;-59
2021/12/16 05:31:49;;;;;;;11.33;7.50;;;;;;;4.90;100.00;100151.06;4922414;29;20188;-61
2021/12/16 05:34:15;;;;;;;9.87;7.23;;;;;;;4.87;100.00;100156.06;4926221;29;20827;-60
2021/12/16 05:36:41;;;;;;;8.00;6.23;;;;;;;4.86;100.00;100172.13;4925612;29;20119;-60
2021/12/16 05:39:09;;;;;;;11.87;7.60;;;;;;;4.89;100.00;100167.13;4927684;29;20035;-60
2021/12/16 05:41:35;;;;;;;7.60;6.07;;;;;;;4.77;100.00;100171.84;4929841;29;20042;-61
2021/12/16 05:44:01;;;;;;;7.93;5.93;;;;;;;4.81;100.00;100160.97;4927840;29;20379;-60
2021/12/16 05:46:27;;;;;;;7.97;6.80;;;;;;;4.83;100.00;100166.97;4928466;29;20110;-59
2021/12/16 05:48:54;;;;;;;6.33;4.90;;;;;;;4.87;100.00;100176.41;4930356;29;20151;-60
2021/12/16 05:51:24;;;;;;;7.00;4.57;;;;;;;4.84;100.00;100177.16;4926049;29;20047;-65
2021/12/16 05:53:52;;;;;;;6.80;5.27;;;;;;;4.81;100.00;100171.13;4928415;29;20031;-60
2021/12/16 05:56:19;;;;;;;6.33;5.10;;;;;;;4.82;100.00;100183.03;4992110;28;20054;-58
2021/12/16 05:58:44;;;;;;;4.03;3.63;;;;;;;4.82;100.00;100196.59;4996462;28;20208;-62
2021/12/16 06:01:15;;;;;;;6.33;4.17;;;;;;;4.81;100.00;100196.53;4992933;28;20552;-58
2021/12/16 06:03:42;;;;;;;5.60;4.40;;;;;;;4.76;100.00;100191.31;4995636;28;20030;-59
2021/12/16 06:06:08;;;;;;;6.00;4.27;;;;;;;4.74;100.00;100199.72;4995303;28;20069;-61
2021/12/16 06:08:33;;;;;;;5.27;3.43;;;;;;;4.70;100.00;100206.41;4992636;28;20521;-60
2021/12/16 06:13:38;;;;;;;5.63;3.97;;;;;;;4.68;100.00;100214.78;4999652;28;20664;-59
2021/12/16 06:29:14;;;;;;;5.60;4.10;;;;;;;4.62;100.00;100240.88;4994923;28;20061;-59
2021/12/16 06:31:40;;;;;;;4.87;3.20;;;;;;;4.63;100.00;100250.19;4991809;28;20065;-58
2021/12/16 06:34:05;;;;;;;4.93;4.03;;;;;;;4.68;100.00;100248.66;4995132;28;20275;-60
2021/12/16 06:36:31;;;;;;;5.57;4.20;;;;;;;4.62;100.00;100245.09;4994035;28;20026;-60
2021/12/16 06:38:57;;;;;;;5.30;4.63;;;;;;;4.60;100.00;100247.56;4991316;28;20596;-60
2021/12/16 06:41:23;;;;;;;7.07;4.60;;;;;;;4.57;100.00;100261.03;4989641;28;20034;-61
2021/12/16 06:43:52;;;;;;;6.27;4.17;;;;;;;4.62;100.00;100271.34;5002766;28;20025;-61
2021/12/16 06:46:20;;;;;;;5.07;4.00;;;;;;;4.56;100.00;100260.97;4993178;28;20286;-60
2021/12/16 06:48:54;;;;;;;5.70;3.80;;;;;;;4.53;100.00;100261.78;4990311;28;20041;-59
2021/12/16 06:51:33;;;;;;;6.53;4.77;;;;;;;4.51;100.00;100257.44;4990216;28;20034;-60
2021/12/16 06:54:05;;;;;;;6.33;4.83;;;;;;;4.55;100.00;100255.03;4997630;28;20490;-59
2021/12/16 06:56:40;;;;;;;7.97;5.83;;;;;;;4.44;100.00;100251.31;4990892;28;20542;-60
2021/12/16 06:59:20;;;;;;;6.03;5.13;;;;;;;4.48;100.00;100263.28;4990217;28;20156;-57
2021/12/16 07:01:59;;;;;;;6.43;4.87;;;;;;;4.52;100.00;100265.13;4995564;28;20272;-63
2021/12/16 07:04:25;;;;;;;4.47;3.97;;;;;;;4.52;100.00;100259.16;4994090;28;20252;-62
2021/12/16 07:06:50;;;;;;;7.87;5.37;;;;;;;4.60;100.00;100271.28;4992669;28;20156;-61
2021/12/16 07:09:18;;;;;;;7.53;5.97;;;;;;;4.54;100.00;100257.56;4999082;28;20062;-61
2021/12/16 07:11:51;;;;;;;7.40;5.23;;;;;;;4.57;100.00;100262.72;4996752;28;20026;-63
2021/12/16 07:14:19;;;;;;;5.87;4.37;;;;;;;4.53;100.00;100261.78;4996975;28;20036;-62
2021/12/16 07:16:48;;;;;;;8.63;5.33;;;;;;;4.50;100.00;100268.41;4989631;28;20072;-61
2021/12/16 07:19:14;;;;;;;10.57;5.93;;;;;;;4.53;100.00;100265.97;4992951;28;20026;-61
2021/12/16 07:21:42;;;;;;;6.60;4.83;;;;;;;4.57;100.00;100255.97;4986013;28;20037;-62
2021/12/16 07:24:11;;;;;;;6.20;4.43;;;;;;;4.63;100.00;100251.88;4990562;28;20064;-61
2021/12/16 07:26:37;;;;;;;8.17;5.80;;;;;;;4.60;100.00;100253.50;4985212;28;20042;-61
2021/12/16 07:29:04;;;;;;;6.90;4.93;;;;;;;4.58;100.00;100256.84;4994908;28;20153;-61
2021/12/16 07:31:30;;;;;;;6.97;4.90;;;;;;;4.53;100.00;100250.75;4989298;28;20037;-61
2021/12/16 07:33:56;;;;;;;6.23;4.40;;;;;;;4.63;100.00;100244.25;4990044;28;20189;-62
2021/12/16 07:36:24;;;;;;;6.97;4.43;;;;;;;4.62;100.00;100247.63;4989006;28;20057;-62
2021/12/16 07:38:49;;;;;;;4.70;3.80;;;;;;;4.55;100.00;100259.25;4994460;28;20036;-62
2021/12/16 07:41:20;;;;;;;8.30;3.27;;;;;;;4.59;100.00;100251.78;4993404;28;20042;-63
2021/12/16 07:44:09;;;;;;;5.47;3.90;;;;;;;4.63;100.00;100242.56;4991869;28;20696;-61
2021/12/16 07:47:00;;;;;;;4.27;3.87;;;;;;;4.79;100.00;100254.06;4989690;28;20026;-62
2021/12/16 07:49:31;;;;;;;4.73;3.27;;;;;;;4.77;100.00;100250.63;4993002;28;20049;-61
2021/12/16 07:51:58;;;;;;;3.33;3.03;;;;;;;4.78;100.00;100258.28;4993678;28;20038;-59
2021/12/16 07:54:25;;;;;;;4.37;2.60;;;;;;;4.88;100.00;100259.44;4996804;28;20041;-63
2021/12/16 07:56:55;;;;;;;3.83;2.90;;;;;;;4.91;100.00;100251.91;4989870;28;20483;-63
2021/12/16 07:59:23;;;;;;;4.07;3.23;;;;;;;4.93;100.00;100251.13;4994004;28;20676;-61
2021/12/16 08:01:49;;;;;;;2.67;2.40;;;;;;;4.97;100.00;100260.56;4990005;28;20030;-62
2021/12/16 08:04:26;;;;;;;6.10;4.10;;;;;;;5.01;100.00;100252.19;4987392;28;20373;-62
2021/12/16 08:06:53;;;;;;;3.57;2.63;;;;;;;5.07;100.00;100264.22;4976825;28;20030;-62
2021/12/16 08:09:19;;;;;;;2.77;2.03;;;;;;;5.09;100.00;100255.00;4993760;28;20038;-60
2021/12/16 08:11:48;;;;;;;2.23;2.03;;;;;;;5.10;100.00;100245.66;4989994;28;20386;-61
2021/12/16 08:14:14;;;;;;;4.63;2.43;;;;;;;5.05;100.00;100255.69;4988354;28;20048;-62
2021/12/16 08:16:39;;;;;;;2.80;2.27;;;;;;;5.00;100.00;100249.63;4989100;28;20027;-62
2021/12/16 08:19:06;;;;;;;2.13;1.93;;;;;;;4.94;100.00;100249.44;4994263;28;20377;-62
2021/12/16 08:21:31;;;;;;;2.23;2.03;;;;;;;4.84;100.00;100249.97;4990169;28;20231;-62
2021/12/16 08:23:59;;;;;;;3.50;2.60;;;;;;;4.87;100.00;100253.50;4987325;28;20026;-61
2021/12/16 08:26:25;;;;;;;2.70;2.37;;;;;;;4.74;100.00;100245.44;4995160;28;20062;-62
2021/12/16 08:28:51;;;;;;;3.10;2.00;;;;;;;4.70;100.00;100243.63;4998629;28;20037;-62
2021/12/16 08:31:16;;;;;;;3.37;2.07;;;;;;;4.76;100.00;100249.75;4993051;28;20424;-62
2021/12/16 08:33:42;;;;;;;2.93;2.20;;;;;;;4.72;100.00;100257.22;4992756;28;20026;-61
2021/12/16 08:36:09;;;;;;;2.60;1.73;;;;;;;4.71;100.00;100248.75;4994424;28;20069;-61
2021/12/16 08:38:36;;;;;;;2.23;1.60;;;;;;;4.76;100.00;100241.25;5000730;28;20058;-62
2021/12/16 08:41:08;;;;;;;1.70;1.60;;;;;;;4.70;100.00;100233.47;4998129;28;20029;-61
2021/12/16 08:43:36;;;;;;;2.63;2.03;;;;;;;4.67;100.00;100264.72;4993981;28;20034;-61
2021/12/16 08:46:02;;;;;;;2.13;1.57;;;;;;;4.70;100.00;100248.72;5000256;28;20392;-62
2021/12/16 08:48:28;;;;;;;3.80;1.60;;;;;;;4.70;100.00;100254.66;4993059;28;20105;-61
2021/12/16 08:50:54;;;;;;;2.13;1.93;;;;;;;4.80;100.00;100250.69;4992092;28;20151;-61
2021/12/16 08:53:22;;;;;;;1.90;1.53;;;;;;;4.94;100.00;100252.84;4994070;28;20026;-61
2021/12/16 08:55:49;;;;;;;1.97;1.80;;;;;;;5.04;100.00;100270.09;4998885;28;20681;-62
2021/12/16 08:58:15;;;;;;;1.07;1.07;;;;;;;5.06;100.00;100257.41;4991892;28;21670;-62
2021/12/16 09:00:46;;;;;;;1.20;1.10;;;;;;;5.17;100.00;100257.75;4994800;28;20121;-61
2021/12/16 09:03:12;;;;;;;1.30;1.20;;;;;;;5.24;100.00;100252.00;5001734;28;20204;-62
2021/12/16 09:05:38;;;;;;;1.57;1.17;;;;;;;5.37;100.00;100259.16;4996779;28;20061;-61
2021/12/16 09:08:05;;;;;;;1.33;0.90;;;;;;;5.36;100.00;100263.38;4996763;28;20665;-61
2021/12/16 09:10:33;;;;;;;1.70;1.23;;;;;;;5.34;100.00;100257.41;4989354;28;20149;-60
2021/12/16 09:13:04;;;;;;;3.13;0.80;;;;;;;5.30;100.00;100263.22;4994370;28;20026;-61
2021/12/16 09:15:37;;;;;;;4.63;1.57;;;;;;;5.32;100.00;100264.09;4993494;28;20030;-60
2021/12/16 09:18:04;;;;;;;1.20;1.00;;;;;;;5.23;100.00;100258.75;4997819;28;20030;-61
2021/12/16 09:20:31;;;;;;;1.73;1.40;;;;;;;5.22;100.00;100277.38;4995303;28;20037;-61
2021/12/16 09:22:58;;;;;;;1.40;1.30;;;;;;;5.21;100.00;100270.59;4998479;28;20077;-60
2021/12/16 09:25:25;;;;;;;5.27;1.60;;;;;;;5.22;100.00;100276.53;4994613;28;20037;-62
2021/12/16 09:27:50;;;;;;;1.00;1.00;;;;;;;5.22;100.00;100276.53;4995936;28;20029;-60
2021/12/16 09:30:20;;;;;;;1.50;1.40;;;;;;;5.17;100.00;100261.16;4991660;28;20607;-61
2021/12/16 09:32:48;;;;;;;2.20;1.43;;;;;;;5.28;100.00;100287.72;4995310;28;20058;-62
2021/12/16 09:35:13;;;;;;;1.50;1.40;;;;;;;5.25;100.00;100287.66;4995187;28;20030;-62
2021/12/16 09:37:39;;;;;;;1.03;0.93;;;;;;;5.27;100.00;100264.78;4990381;28;20053;-62
2021/12/16 09:40:10;;;;;;;1.50;1.40;;;;;;;5.36;100.00;100268.47;4996017;28;20025;-62
2021/12/16 09:42:37;;;;;;;1.37;1.17;;;;;;;5.34;100.00;100271.78;4996612;28;20113;-61
2021/12/16 09:45:05;;;;;;;1.50;1.20;;;;;;;5.34;100.00;100266.72;4997236;28;20022;-62
2021/12/16 09:47:31;;;;;;;1.13;1.13;;;;;;;5.36;100.00;100265.91;4995118;28;20053;-61
2021/12/16 09:49:56;;;;;;;1.43;1.33;;;;;;;5.29;100.00;100255.53;4994501;28;20511;-60
2021/12/16 09:52:22;;;;;;;1.63;1.50;;;;;;;5.36;100.00;100259.97;4997159;28;20417;-61
2021/12/16 09:54:47;;;;;;;1.10;1.10;;;;;;;5.37;100.00;100254.06;4995516;28;20033;-61
2021/12/16 09:57:16;;;;;;;1.40;1.30;;;;;;;5.42;100.00;100258.47;4993502;28;20520;-62
2021/12/16 09:59:42;;;;;;;1.77;1.53;;;;;;;5.42;100.00;100255.06;4993308;28;20059;-62
2021/12/16 10:02:16;;;;;;;2.47;1.17;;;;;;;5.45;100.00;100256.00;4996070;28;20104;-62
2021/12/16 10:04:41;;;;;;;1.37;1.10;;;;;;;5.47;100.00;100248.44;4994523;28;20056;-63
2021/12/16 10:07:13;;;;;;;1.47;1.37;;;;;;;5.53;100.00;100249.44;4991994;28;20038;-62
2021/12/16 10:09:39;;;;;;;2.00;1.40;;;;;;;5.44;100.00;100253.41;4993838;28;20460;-61
2021/12/16 10:12:11;;;;;;;3.53;2.20;;;;;;;5.50;100.00;100244.28;4993818;28;20499;-61
2021/12/16 10:17:32;;;;;;;3.00;1.53;;;;;;;5.54;100.00;100252.84;4992330;28;20120;-62
2021/12/16 10:20:49;;;;;;;2.60;1.27;;;;;;;5.64;100.00;100236.16;4998475;28;20038;-63
2021/12/16 10:23:38;;;;;;;2.47;2.17;;;;;;;5.56;100.00;100228.28;4961203;28;20182;-61
2021/12/16 10:26:06;;;;;;;2.73;1.40;;;;;;;5.48;100.00;100219.59;4991873;28;20034;-62
2021/12/16 10:28:38;;;;;;;2.23;1.60;;;;;;;5.56;100.00;100223.22;4990939;28;20045;-61
2021/12/16 10:31:07;;;;;;;1.87;1.37;;;;;;;5.55;100.00;100236.78;4993154;28;20114;-61
2021/12/16 10:33:32;;;;;;;1.77;1.33;;;;;;;5.50;100.00;100225.59;4994222;28;20042;-63
2021/12/16 10:36:23;;;;;;;2.90;1.97;;;;;;;5.52;100.00;100221.41;4992433;28;20049;-60
2021/12/16 10:38:55;;;;;;;2.60;1.60;;;;;;;5.64;100.00;100214.13;4993958;28;20030;-62
2021/12/16 10:41:26;;;;;;;1.47;1.33;;;;;;;5.62;100.00;100215.75;4995167;28;20401;-62
2021/12/16 10:44:01;;;;;;;1.47;1.10;;;;;;;5.58;100.00;100211.41;4995775;28;20456;-62
2021/12/16 10:46:31;;;;;;;1.17;1.08;;;;;;;5.53;100.00;100210.41;4990658;28;20026;-62
2021/12/16 10:49:00;;;;;;;1.43;1.20;;;;;;;5.47;100.00;100211.13;5002550;28;20400;-63
2021/12/16 10:51:28;;;;;;;1.40;1.30;;;;;;;5.47;100.00;100202.66;4994702;28;20037;-62
2021/12/16 10:54:15;;;;;;;1.17;1.07;;;;;;;5.54;100.00;100209.59;4993737;28;20026;-62
2021/12/16 10:56:56;;;;;;;0.90;0.90;;;;;;;5.63;100.00;100209.84;4994752;28;20038;-62
2021/12/16 10:59:21;;;;;;;1.50;1.00;;;;;;;5.67;100.00;100200.63;4991073;28;20542;-60
2021/12/16 11:01:57;;;;;;;1.80;0.83;;;;;;;5.71;100.00;100202.41;4992529;28;20034;-61
2021/12/16 11:04:33;;;;;;;1.27;1.10;;;;;;;5.75;100.00;100205.06;4988778;28;20026;-62
2021/12/16 11:07:13;;;;;;;1.60;1.27;;;;;;;5.69;100.00;100194.72;4995702;28;20030;-61
2021/12/16 11:09:41;;;;;;;1.20;1.10;;;;;;;5.75;100.00;100214.38;4994496;28;20038;-61
2021/12/16 11:12:35;;;;;;;1.73;1.40;;;;;;;5.83;100.00;100197.63;4992926;28;20026;-62
2021/12/16 11:15:13;;;;;;;1.43;1.23;;;;;;;5.83;100.00;100195.09;4991317;28;20327;-61
2021/12/16 11:17:54;;;;;;;1.43;0.90;;;;;;;5.95;100.00;100195.41;4994660;28;20387;-62
2021/12/16 11:20:25;;;;;;;1.00;1.00;;;;;;;5.86;100.00;100201.13;4989764;28;20149;-59
2021/12/16 11:22:55;;;;;;;1.20;1.00;;;;;;;5.84;100.00;100201.91;4990549;28;20037;-61
2021/12/16 11:25:34;;;;;;;2.07;1.23;;;;;;;5.88;100.00;100185.91;4991958;28;20249;-61
2021/12/16 11:28:05;;;;;;;1.23;1.13;;;;;;;5.93;100.00;100190.31;4995838;28;20432;-61
2021/12/16 11:30:53;;;;;;;1.10;1.00;;;;;;;5.98;100.00;100192.97;4992224;28;20038;-61
2021/12/16 11:33:26;;;;;;;1.53;1.40;;;;;;;5.97;100.00;100191.22;4991289;28;20049;-61
2021/12/16 11:36:00;;;;;;;2.13;1.10;;;;;;;6.00;100.00;100181.13;4995847;28;20100;-61
2021/12/16 11:38:32;;;;;;;3.28;1.55;;;;;;;6.00;100.00;100180.25;4993055;28;20022;-60
2021/12/16 11:41:06;;;;;;;1.10;1.00;;;;;;;6.01;100.00;100180.31;4987377;28;20045;-61
2021/12/16 11:43:31;;;;;;;1.10;1.07;;;;;;;6.06;100.00;100193.16;4993065;28;20040;-62
2021/12/16 11:45:57;;;;;;;2.67;1.33;;;;;;;6.15;100.00;100180.63;4994102;28;20034;-61
2021/12/16 11:48:32;;;;;;;1.57;1.10;;;;;;;6.15;100.00;100173.00;4997868;28;20347;-60
2021/12/16 11:51:08;;;;;;;3.60;1.45;;;;;;;6.15;100.00;100173.88;4992112;28;20038;-61
2021/12/16 11:53:49;;;;;;;2.13;1.60;;;;;;;6.18;100.00;100176.47;4998006;28;20117;-60
2021/12/16 11:56:17;;;;;;;1.33;1.23;;;;;;;6.07;100.00;100182.16;4998648;28;20056;-59
2021/12/16 11:58:44;;;;;;;2.67;1.87;;;;;;;6.04;100.00;100175.28;4991470;28;20510;-60
2021/12/16 12:01:14;;;;;;;1.50;1.40;;;;;;;6.09;100.00;100170.28;4993159;28;20073;-59
2021/12/16 12:03:40;;;;;;;2.30;2.00;;;;;;;6.09;100.00;100183.03;4994604;28;20101;-62
2021/12/16 12:06:05;;;;;;;2.43;1.33;;;;;;;6.21;100.00;100180.75;4995722;28;20081;-61
2021/12/16 12:08:32;;;;;;;4.20;1.63;;;;;;;6.45;100.00;100170.28;4995556;28;20030;-62
2021/12/16 12:11:12;;;;;;;1.67;1.57;;;;;;;6.53;100.00;100178.97;4981947;28;20042;-61
2021/12/16 12:13:42;;;;;;;2.00;1.70;;;;;;;6.64;100.00;100169.84;4999774;28;20030;-60
2021/12/16 12:16:15;;;;;;;3.00;1.90;;;;;;;6.62;100.00;100171.53;4996571;28;20137;-61
2021/12/16 12:19:08;;;;;;;2.63;1.87;;;;;;;6.51;100.00;100167.84;4996193;28;20034;-62
2021/12/16 12:21:42;;;;;;;2.63;2.00;;;;;;;6.47;100.00;100164.38;4996530;28;20263;-64
2021/12/16 12:24:16;;;;;;;2.63;2.03;;;;;;;6.39;100.00;100166.78;5000597;28;20041;-64
2021/12/16 12:26:53;;;;;;;2.27;1.70;;;;;;;6.34;100.00;100163.25;4994473;28;20069;-62
2021/12/16 12:29:34;;;;;;;2.87;1.80;;;;;;;6.37;100.00;100167.53;4992603;28;20050;-62
2021/12/16 12:32:20;;;;;;;3.87;2.20;;;;;;;6.40;100.00;100162.53;4995076;28;20374;-60
2021/12/16 12:34:50;;;;;;;1.90;1.67;;;;;;;6.28;100.00;100152.91;4994144;28;20026;-60
2021/12/16 12:37:20;;;;;;;2.73;2.47;;;;;;;6.33;100.00;100156.44;4992983;28;20141;-59
2021/12/16 12:39:53;;;;;;;2.60;1.50;;;;;;;6.26;100.00;100146.09;4992016;28;20058;-60
2021/12/16 12:42:19;;;;;;;2.23;2.03;;;;;;;6.29;100.00;100151.22;4995913;28;20121;-59
2021/12/16 12:44:45;;;;;;;2.30;2.10;;;;;;;6.25;100.00;100152.00;4995275;28;20108;-62
2021/12/16 12:47:15;;;;;;;2.63;1.83;;;;;;;6.33;100.00;100151.34;4989264;28;20042;-61
2021/12/16 12:49:41;;;;;;;3.37;1.83;;;;;;;6.28;100.00;100160.56;4992185;28;20030;-60
2021/12/16 12:52:12;;;;;;;4.03;2.33;;;;;;;6.41;100.00;100164.25;4994658;28;20041;-60
2021/12/16 12:54:42;;;;;;;2.93;2.67;;;;;;;6.35;100.00;100164.13;4994207;28;20030;-59
2021/12/16 12:57:29;;;;;;;2.93;2.17;;;;;;;6.30;100.00;100165.69;4989969;28;20117;-59
2021/12/16 12:59:57;;;;;;;3.03;2.10;;;;;;;6.21;100.00;100165.47;4992272;28;20057;-60
2021/12/16 13:02:27;;;;;;;5.90;3.13;;;;;;;6.21;100.00;100184.16;4993687;28;20022;-60
2021/12/16 13:05:17;;;;;;;3.23;2.63;;;;;;;6.20;100.00;100167.16;4992275;28;20031;-62
2021/12/16 13:07:47;;;;;;;6.77;3.00;;;;;;;6.27;100.00;100176.69;4987561;28;20184;-61
2021/12/16 13:10:12;;;;;;;3.17;2.30;;;;;;;6.21;100.00;100181.63;4993664;28;20038;-63
2021/12/16 13:12:51;;;;;;;4.43;3.33;;;;;;;6.21;100.00;100178.22;4994936;28;20030;-60
2021/12/16 13:15:29;;;;;;;4.97;2.80;;;;;;;6.15;100.00;100165.38;4990578;28;20088;-59
2021/12/16 13:23:57;;;;;;;3.13;2.83;;;;;;;6.13;100.00;100152.59;4996883;28;20447;-60
2021/12/16 13:26:36;;;;;;;5.57;3.37;;;;;;;6.05;100.00;100138.81;4994851;28;20034;-59
2021/12/16 13:29:11;;;;;;;3.80;3.37;;;;;;;6.00;100.00;100137.84;4997038;28;20034;-60
2021/12/16 13:32:16;;;;;;;4.60;3.53;;;;;;;6.08;100.00;100133.78;4998658;28;20065;-59
2021/12/16 13:34:59;;;;;;;4.57;3.50;;;;;;;6.13;100.00;100137.31;4997491;28;20096;-60
2021/12/16 13:37:32;;;;;;;5.43;4.10;;;;;;;6.18;100.00;100138.28;4997892;28;20034;-58
2021/12/16 13:40:05;;;;;;;6.43;3.37;;;;;;;6.06;100.00;100160.03;4998066;28;20047;-60
2021/12/16 13:42:58;;;;;;;3.87;3.50;;;;;;;6.04;100.00;100143.88;4997959;28;20044;-60
2021/12/16 13:45:42;;;;;;;6.00;4.00;;;;;;;6.03;100.00;100137.03;4995091;28;20049;-59
2021/12/16 14:03:10;;;;;;;4.83;3.47;;;;;;;5.85;100.00;100160.38;4993939;28;19925;-58
2021/12/16 14:05:51;;;;;;;8.03;5.57;;;;;;;5.92;100.00;100154.63;4995501;28;20148;-62
2021/12/16 14:08:35;;;;;;;4.17;3.63;;;;;;;5.84;100.00;100148.47;4996147;28;20136;-61
2021/12/16 14:11:16;;;;;;;5.63;3.97;;;;;;;5.81;100.00;100161.13;4994375;28;20113;-58
2021/12/16 14:46:47;;;;;;;3.27;2.97;;;;;;;5.62;100.00;100146.19;4995388;28;20120;-57
2021/12/16 14:49:13;;;;;;;4.40;3.40;;;;;;;5.55;100.00;100157.91;4993012;28;20076;-59
2021/12/16 14:51:39;;;;;;;5.70;3.67;;;;;;;5.58;100.00;100152.03;4992706;28;20553;-58
2021/12/16 14:54:07;;;;;;;4.37;3.73;;;;;;;5.66;100.00;100151.41;4993436;28;20022;-58
2021/12/16 14:56:37;;;;;;;4.33;3.37;;;;;;;5.72;100.00;100148.16;4982649;28;20041;-58
2021/12/16 14:59:11;;;;;;;5.00;3.47;;;;;;;5.70;100.00;100153.19;4992594;28;20530;-59
2021/12/16 15:02:00;;;;;;;4.60;3.33;;;;;;;5.70;100.00;100150.66;4993682;28;20871;-58
2021/12/16 15:04:28;;;;;;;4.47;4.07;;;;;;;5.76;100.00;100140.66;4996510;28;20031;-59